Time;durP1;ratioP1;P1;durP2;ratioP2;P2;SDS_P1;SDS_P2;PMS_P1;PMS_P2;Temp;Humidity;BMP_temperature;BMP_pressure;BME280_temperature;BME280_humidity;BME280_pressure;Samples;Min_cycle;Max_cycle;Signal;HPM_P1;HPM_P2
2022/10/24 00:29:43;;;;;;;3.10;1.60;;;;;;;24.79;43.81;100223.13;4996858;28;20110;-62
2022/10/24 00:32:09;;;;;;;3.50;1.63;;;;;;;24.82;44.22;100214.44;4995345;28;20069;-62
2022/10/24 00:34:34;;;;;;;3.83;1.00;;;;;;;24.84;43.86;100217.78;4995708;28;20027;-63
2022/10/24 00:36:59;;;;;;;2.55;1.02;;;;;;;24.92;43.68;100218.50;4994496;28;20037;-62
2022/10/24 00:39:25;;;;;;;2.50;0.73;;;;;;;24.94;43.78;100224.56;4995072;28;20105;-62
2022/10/24 00:41:53;;;;;;;10.25;1.75;;;;;;;24.94;43.27;100217.19;4995074;28;20093;-62
2022/10/24 00:44:24;;;;;;;8.02;1.67;;;;;;;24.97;43.09;100213.13;4978991;28;20023;-62
2022/10/24 00:46:49;;;;;;;1.98;0.93;;;;;;;24.97;43.11;100210.38;4995255;28;20022;-62
2022/10/24 00:49:18;;;;;;;5.70;1.52;;;;;;;24.96;43.08;100225.19;4996251;28;20061;-62
2022/10/24 00:51:45;;;;;;;4.43;0.70;;;;;;;24.97;43.33;100232.31;4995056;28;20030;-62
2022/10/24 00:54:12;;;;;;;7.15;1.50;;;;;;;24.94;43.20;100210.84;4978791;28;20450;-62
2022/10/24 00:56:45;;;;;;;2.30;1.20;;;;;;;24.96;43.13;100222.44;4978781;28;20026;-62
2022/10/24 00:59:12;;;;;;;2.90;1.88;;;;;;;24.96;42.82;100219.69;4978696;28;20088;-61
2022/10/24 01:01:38;;;;;;;4.25;1.25;;;;;;;24.95;42.57;100218.03;4979196;28;20392;-61
2022/10/24 01:04:05;;;;;;;5.90;0.95;;;;;;;24.94;43.23;100213.59;4994909;28;20495;-61
2022/10/24 01:06:40;;;;;;;2.20;0.63;;;;;;;24.95;42.87;100218.03;4978220;28;20057;-64
2022/10/24 01:09:36;;;;;;;3.75;1.13;;;;;;;24.94;42.86;100210.84;4996135;28;20045;-63
2022/10/24 01:12:20;;;;;;;4.20;1.05;;;;;;;24.90;42.47;100205.84;4972018;28;20042;-64
2022/10/24 01:15:03;;;;;;;6.88;0.60;;;;;;;24.95;43.34;100218.84;4978392;28;20400;-63
2022/10/24 01:17:35;;;;;;;10.10;0.70;;;;;;;24.94;42.63;100217.19;4996122;28;20034;-63
2022/10/24 01:20:06;;;;;;;6.85;1.13;;;;;;;24.90;42.36;100211.34;4994479;28;20494;-63
2022/10/24 01:23:11;;;;;;;6.55;1.05;;;;;;;24.87;43.16;100211.81;4996119;28;20084;-63
2022/10/24 01:25:42;;;;;;;4.13;0.98;;;;;;;24.88;42.14;100215.38;4976805;28;20508;-63
2022/10/24 01:28:14;;;;;;;3.40;0.80;;;;;;;24.83;42.17;100205.16;4995532;28;20508;-63
2022/10/24 01:30:42;;;;;;;2.72;1.20;;;;;;;24.84;42.33;100206.81;4994840;28;20459;-63
2022/10/24 01:33:17;;;;;;;3.25;1.00;;;;;;;24.81;42.35;100201.81;4978203;28;20030;-63
2022/10/24 01:35:54;;;;;;;1.55;0.70;;;;;;;24.80;42.50;100208.34;4994782;28;20057;-63
2022/10/24 01:38:41;;;;;;;4.03;0.70;;;;;;;24.77;42.04;100195.09;4977493;28;20073;-63
2022/10/24 01:41:09;;;;;;;3.20;0.73;;;;;;;24.73;42.19;100193.91;4995257;28;20041;-63
2022/10/24 01:43:47;;;;;;;3.08;1.23;;;;;;;24.70;41.97;100194.41;4984190;28;20026;-62
2022/10/24 01:46:16;;;;;;;2.10;0.73;;;;;;;24.69;42.62;100192.72;5001207;28;20034;-63
2022/10/24 01:48:48;;;;;;;0.77;0.60;;;;;;;24.69;42.14;100191.88;4999163;28;20042;-62
2022/10/24 01:51:16;;;;;;;4.00;0.70;;;;;;;24.65;42.10;100191.50;4983813;28;20026;-62
2022/10/24 01:53:43;;;;;;;5.15;0.80;;;;;;;24.62;42.19;100191.97;4999367;28;20038;-62
2022/10/24 01:56:11;;;;;;;3.60;0.75;;;;;;;24.60;42.04;100185.91;4998657;28;20065;-62
2022/10/24 01:58:36;;;;;;;3.75;0.73;;;;;;;24.59;41.90;100189.72;4967804;28;20041;-63
2022/10/24 02:01:06;;;;;;;5.10;1.15;;;;;;;24.59;42.80;100189.72;4998748;28;20034;-61
2022/10/24 02:03:41;;;;;;;4.38;0.80;;;;;;;24.57;42.31;100189.13;4999352;28;20404;-60
2022/10/24 02:06:17;;;;;;;4.00;0.65;;;;;;;24.56;42.27;100181.97;4998822;28;20061;-62
2022/10/24 02:08:45;;;;;;;2.25;0.75;;;;;;;24.54;42.21;100181.38;4998661;28;20050;-62
2022/10/24 02:11:11;;;;;;;2.85;0.60;;;;;;;24.55;42.21;100179.47;4999945;28;20028;-64
2022/10/24 02:13:56;;;;;;;3.70;0.80;;;;;;;24.56;42.46;100181.97;4999624;28;20046;-62
2022/10/24 02:16:22;;;;;;;1.42;0.43;;;;;;;24.53;41.97;100187.94;4982069;28;20042;-62
2022/10/24 02:18:50;;;;;;;1.65;0.90;;;;;;;24.53;42.15;100187.09;4983025;28;20069;-62
2022/10/24 02:21:18;;;;;;;2.55;0.60;;;;;;;24.54;41.53;100188.78;4998755;28;20061;-62
2022/10/24 02:23:56;;;;;;;4.00;0.70;;;;;;;24.54;41.96;100186.84;5000626;28;20061;-62
2022/10/24 02:26:36;;;;;;;2.63;0.73;;;;;;;24.52;41.69;100179.94;5000393;28;20034;-63
2022/10/24 02:29:06;;;;;;;3.25;0.73;;;;;;;24.48;41.49;100174.13;4997813;28;20026;-62
2022/10/24 02:31:35;;;;;;;1.27;0.65;;;;;;;24.45;42.03;100177.31;4999234;28;20014;-62
2022/10/24 02:34:02;;;;;;;3.55;0.73;;;;;;;24.44;42.04;100172.91;4998415;28;20038;-63
2022/10/24 02:36:28;;;;;;;0.65;0.65;;;;;;;24.44;42.16;100175.66;4982671;28;20045;-62
2022/10/24 02:38:54;;;;;;;3.78;1.02;;;;;;;24.44;42.01;100174.81;4981990;28;20042;-63
2022/10/24 02:41:23;;;;;;;1.95;0.50;;;;;;;24.43;42.07;100173.97;4997716;28;20130;-61
2022/10/24 02:43:50;;;;;;;1.42;0.75;;;;;;;24.39;41.88;100171.94;4997907;28;20054;-63
2022/10/24 02:46:15;;;;;;;1.58;0.70;;;;;;;24.40;41.98;100166.22;4998472;28;20062;-62
2022/10/24 02:48:46;;;;;;;0.73;0.50;;;;;;;24.38;41.69;100165.63;4997536;28;20034;-61
2022/10/24 02:51:13;;;;;;;1.98;0.68;;;;;;;24.37;41.60;100168.63;4997511;28;20035;-62
2022/10/24 02:53:38;;;;;;;4.32;0.47;;;;;;;24.33;42.03;100168.25;4981420;28;20034;-62
2022/10/24 02:56:04;;;;;;;2.08;0.65;;;;;;;24.36;41.93;100177.88;4981454;28;20546;-62
2022/10/24 02:58:29;;;;;;;3.80;0.40;;;;;;;24.33;41.53;100176.47;4982381;28;20084;-62
2022/10/24 03:00:55;;;;;;;2.85;0.80;;;;;;;24.32;41.51;100167.41;5000231;28;20053;-62
2022/10/24 03:03:21;;;;;;;2.38;0.70;;;;;;;24.30;41.41;100155.00;4984912;28;20074;-62
2022/10/24 03:05:46;;;;;;;2.28;0.40;;;;;;;24.31;41.38;100167.66;4984860;28;20034;-62
2022/10/24 03:08:12;;;;;;;1.25;0.60;;;;;;;24.31;41.63;100170.38;4968699;28;20034;-62
2022/10/24 03:10:37;;;;;;;4.95;1.25;;;;;;;24.29;41.67;100177.97;4984684;28;20030;-62
2022/10/24 03:13:03;;;;;;;6.45;0.82;;;;;;;24.28;41.83;100168.13;5000868;28;20030;-60
2022/10/24 03:15:29;;;;;;;3.05;1.00;;;;;;;24.30;41.34;100179.66;5001147;28;20035;-62
2022/10/24 03:17:54;;;;;;;2.85;0.57;;;;;;;24.26;41.87;100170.25;5000892;28;20034;-61
2022/10/24 03:20:19;;;;;;;1.33;0.50;;;;;;;24.29;41.55;100186.19;5001617;28;20101;-62
2022/10/24 03:22:45;;;;;;;1.95;0.40;;;;;;;24.28;41.63;100179.06;5001678;28;20094;-62
2022/10/24 03:25:10;;;;;;;5.18;0.57;;;;;;;24.28;42.15;100179.91;5001550;28;20125;-62
2022/10/24 03:27:36;;;;;;;2.70;0.55;;;;;;;24.27;41.32;100191.91;5001437;28;20027;-63
2022/10/24 03:30:02;;;;;;;0.70;0.57;;;;;;;24.25;41.68;100179.53;5002291;28;20041;-61
2022/10/24 03:32:27;;;;;;;3.38;0.73;;;;;;;24.27;41.79;100180.13;4985134;28;20034;-61
2022/10/24 03:34:53;;;;;;;1.60;0.40;;;;;;;24.26;41.51;100182.03;5003250;28;20090;-61
2022/10/24 03:37:18;;;;;;;5.43;0.50;;;;;;;24.24;41.49;100177.84;5001369;28;20559;-60
2022/10/24 03:39:44;;;;;;;7.85;0.90;;;;;;;24.24;41.71;100183.31;4996407;28;146736;-61
2022/10/24 03:42:09;;;;;;;1.75;0.75;;;;;;;24.23;41.66;100176.19;4996740;28;20403;-62
2022/10/24 03:44:35;;;;;;;1.65;0.73;;;;;;;24.22;41.58;100183.56;5002165;28;20058;-60
2022/10/24 03:47:00;;;;;;;4.47;0.93;;;;;;;24.18;41.67;100170.56;5002429;28;20030;-60
2022/10/24 03:49:26;;;;;;;1.40;0.50;;;;;;;24.18;41.47;100171.41;4970689;28;20401;-62
2022/10/24 03:51:51;;;;;;;1.85;0.57;;;;;;;24.19;41.91;100175.00;5002111;28;20030;-59
2022/10/24 03:54:16;;;;;;;4.38;0.63;;;;;;;24.16;41.84;100169.97;5003964;28;20041;-62
2022/10/24 03:56:43;;;;;;;5.03;0.70;;;;;;;24.14;41.87;100188.53;4986204;28;20042;-62
2022/10/24 03:59:09;;;;;;;3.05;0.60;;;;;;;24.13;41.43;100189.59;5001732;28;20112;-62
2022/10/24 04:01:34;;;;;;;2.72;0.70;;;;;;;24.07;41.86;100180.38;5002463;28;20128;-62
2022/10/24 04:04:00;;;;;;;1.40;0.70;;;;;;;24.06;41.82;100186.09;4969727;28;20039;-63
2022/10/24 04:06:26;;;;;;;7.53;0.57;;;;;;;24.06;41.87;100191.59;4983006;28;20074;-62
2022/10/24 04:08:54;;;;;;;0.75;0.50;;;;;;;24.04;42.29;100186.31;4982950;28;20078;-62
2022/10/24 04:11:20;;;;;;;1.45;0.65;;;;;;;24.00;42.03;100178.81;4966809;28;20035;-62
2022/10/24 04:13:45;;;;;;;3.38;0.65;;;;;;;24.04;42.01;100182.75;4966092;28;20030;-60
2022/10/24 04:16:10;;;;;;;3.78;0.80;;;;;;;24.02;41.51;100182.16;4982928;28;20132;-60
2022/10/24 04:18:36;;;;;;;0.95;0.50;;;;;;;24.01;41.57;100188.72;4976219;28;20404;-60
2022/10/24 04:21:02;;;;;;;3.42;0.85;;;;;;;23.99;42.28;100196.28;4991147;28;20089;-62
2022/10/24 04:23:29;;;;;;;1.55;0.40;;;;;;;23.95;42.56;100190.47;5002998;28;20054;-59
2022/10/24 04:25:55;;;;;;;3.60;0.77;;;;;;;23.90;42.39;100181.28;5003238;28;20054;-61
2022/10/24 04:28:20;;;;;;;3.63;0.63;;;;;;;23.88;42.32;100178.78;5001752;28;20503;-61
2022/10/24 04:30:46;;;;;;;5.25;0.50;;;;;;;23.87;42.26;100188.03;5001521;28;20034;-60
2022/10/24 04:33:11;;;;;;;3.17;0.70;;;;;;;23.85;42.61;100187.44;5001806;28;20088;-61
2022/10/24 04:35:36;;;;;;;4.20;0.68;;;;;;;23.82;42.61;100189.78;4996906;28;20107;-60
2022/10/24 04:38:02;;;;;;;1.85;0.77;;;;;;;23.78;42.39;100184.78;4983770;28;20058;-60
2022/10/24 04:40:27;;;;;;;1.52;0.70;;;;;;;23.76;42.42;100180.59;4966847;28;20508;-62
2022/10/24 04:42:52;;;;;;;1.70;0.50;;;;;;;23.76;42.01;100189.66;4983486;28;20496;-62
2022/10/24 04:45:18;;;;;;;1.98;0.73;;;;;;;23.70;41.76;100195.22;4981049;28;20042;-60
2022/10/24 04:47:43;;;;;;;4.72;0.85;;;;;;;23.71;41.99;100186.78;4981891;28;20045;-62
2022/10/24 04:50:09;;;;;;;2.47;1.25;;;;;;;23.68;42.71;100178.19;4965885;28;20074;-62
2022/10/24 04:52:34;;;;;;;2.22;0.55;;;;;;;23.68;42.79;100189.97;4982743;28;20049;-62
2022/10/24 04:55:00;;;;;;;2.08;0.35;;;;;;;23.65;41.92;100195.91;4981235;28;20041;-62
2022/10/24 04:57:25;;;;;;;6.10;1.00;;;;;;;23.64;42.56;100193.41;4973302;28;20045;-62
2022/10/24 04:59:50;;;;;;;3.33;0.68;;;;;;;23.62;42.95;100188.16;4965383;28;20038;-62
2022/10/24 05:02:16;;;;;;;1.13;0.52;;;;;;;23.62;42.53;100196.34;4982813;28;20511;-62
2022/10/24 05:04:41;;;;;;;5.20;0.80;;;;;;;23.61;42.42;100200.19;4981504;28;20054;-62
2022/10/24 05:07:06;;;;;;;5.90;0.95;;;;;;;23.60;42.30;100203.97;4978726;28;20058;-61
2022/10/24 05:09:32;;;;;;;3.40;1.02;;;;;;;23.58;42.79;100188.84;4980954;28;20031;-62
2022/10/24 05:11:57;;;;;;;2.45;0.52;;;;;;;23.59;42.08;100202.28;4988157;28;20046;-62
2022/10/24 05:14:23;;;;;;;1.45;0.50;;;;;;;23.56;42.64;100208.22;4996979;28;20113;-62
2022/10/24 05:16:48;;;;;;;1.58;0.90;;;;;;;23.54;42.54;100215.81;4982719;28;20509;-63
2022/10/24 05:19:15;;;;;;;3.70;0.57;;;;;;;23.51;42.44;100205.34;4979130;28;20463;-62
2022/10/24 05:21:41;;;;;;;4.40;0.50;;;;;;;23.48;42.19;100200.31;4980197;28;20102;-62
2022/10/24 05:24:06;;;;;;;2.45;0.82;;;;;;;23.43;42.76;100207.53;4963493;28;20042;-62
2022/10/24 05:26:32;;;;;;;5.40;1.42;;;;;;;23.42;42.86;100216.81;4979983;28;20038;-60
2022/10/24 05:28:57;;;;;;;3.70;1.10;;;;;;;23.41;42.97;100221.44;4964730;28;20031;-62
2022/10/24 05:31:22;;;;;;;3.45;0.57;;;;;;;23.42;42.86;100212.16;4980266;28;20039;-62
2022/10/24 05:33:48;;;;;;;4.03;0.65;;;;;;;23.42;42.32;100222.28;4975795;28;20054;-63
2022/10/24 05:36:13;;;;;;;5.07;1.20;;;;;;;23.41;42.40;100218.72;4979755;28;20038;-62
2022/10/24 05:38:39;;;;;;;4.20;1.42;;;;;;;23.37;42.88;100228.38;4979415;28;20039;-63
2022/10/24 05:41:04;;;;;;;2.70;0.47;;;;;;;23.37;43.38;100228.38;4996170;28;20031;-62
2022/10/24 05:43:29;;;;;;;0.63;0.60;;;;;;;23.35;43.16;100222.31;4981606;28;20027;-62
2022/10/24 05:45:55;;;;;;;7.45;0.70;;;;;;;23.32;42.88;100230.13;4980264;28;20456;-62
2022/10/24 05:48:20;;;;;;;4.65;0.90;;;;;;;23.34;42.56;100226.09;4996221;28;20053;-62
2022/10/24 05:50:45;;;;;;;1.67;0.57;;;;;;;23.28;43.43;100224.31;4996416;28;20050;-62
2022/10/24 05:53:11;;;;;;;4.03;0.50;;;;;;;23.29;42.94;100239.63;5013011;28;20034;-62
2022/10/24 05:55:37;;;;;;;2.45;0.73;;;;;;;23.26;43.21;100234.59;4996223;28;20098;-63
2022/10/24 05:58:03;;;;;;;5.50;0.52;;;;;;;23.30;42.82;100224.91;4980364;28;20041;-62
2022/10/24 06:00:28;;;;;;;3.75;0.40;;;;;;;23.27;43.10;100244.47;5013317;28;20101;-62
2022/10/24 06:02:54;;;;;;;5.15;0.50;;;;;;;23.26;43.12;100242.81;5012689;28;20050;-62
2022/10/24 06:05:20;;;;;;;3.63;0.93;;;;;;;23.29;42.61;100234.16;4996528;28;20043;-62
2022/10/24 06:07:45;;;;;;;3.10;0.63;;;;;;;23.28;43.03;100237.97;5013873;28;20038;-62
2022/10/24 06:10:12;;;;;;;3.53;0.60;;;;;;;23.29;43.63;100239.63;4980245;28;20089;-63
2022/10/24 06:12:38;;;;;;;4.57;0.45;;;;;;;23.29;43.28;100250.56;4979451;28;20571;-62
2022/10/24 06:15:05;;;;;;;2.90;0.70;;;;;;;23.29;43.35;100250.56;4994460;28;20039;-62
2022/10/24 06:17:31;;;;;;;3.60;0.82;;;;;;;23.29;43.13;100244.25;4979306;28;20039;-61
2022/10/24 06:19:56;;;;;;;4.82;0.80;;;;;;;23.27;43.28;100236.28;4980965;28;20034;-61
2022/10/24 06:22:26;;;;;;;1.88;0.80;;;;;;;23.32;42.71;100255.56;4978825;28;20059;-62
2022/10/24 06:24:52;;;;;;;4.45;0.70;;;;;;;23.31;42.66;100253.88;4999108;28;20046;-61
2022/10/24 06:27:17;;;;;;;3.80;0.50;;;;;;;23.29;42.93;100247.81;4982000;28;20400;-62
2022/10/24 06:29:42;;;;;;;2.08;0.75;;;;;;;23.29;43.65;100239.63;4966880;28;20066;-62
2022/10/24 06:32:08;;;;;;;3.33;0.93;;;;;;;23.31;43.67;100259.34;4981999;28;20513;-61
2022/10/24 06:34:34;;;;;;;3.80;1.20;;;;;;;23.30;43.47;100256.88;4984750;28;20023;-62
2022/10/24 06:36:59;;;;;;;3.55;0.80;;;;;;;23.30;42.84;100256.88;4985593;28;20041;-61
2022/10/24 06:39:25;;;;;;;2.42;0.45;;;;;;;23.30;43.50;100256.88;4988025;28;20050;-62
2022/10/24 06:41:50;;;;;;;6.47;0.75;;;;;;;23.31;42.82;100259.34;4970817;28;20047;-61
2022/10/24 06:44:16;;;;;;;5.03;0.70;;;;;;;23.32;43.09;100261.03;4987306;28;20126;-61
2022/10/24 06:46:42;;;;;;;4.18;0.75;;;;;;;23.33;42.42;100268.19;4971125;28;20030;-61
2022/10/24 06:49:08;;;;;;;3.85;0.60;;;;;;;23.34;42.75;100274.50;4987506;28;20081;-62
2022/10/24 06:51:34;;;;;;;7.03;0.73;;;;;;;23.35;43.31;100276.16;4987891;28;20038;-62
2022/10/24 06:53:59;;;;;;;2.85;0.75;;;;;;;23.34;43.59;100278.03;4955285;28;20169;-61
2022/10/24 06:56:25;;;;;;;4.15;0.60;;;;;;;23.35;43.55;100271.53;4986634;28;20035;-62
2022/10/24 06:58:50;;;;;;;4.00;1.13;;;;;;;23.37;42.70;100290.41;4972762;28;20034;-62
2022/10/24 07:01:18;;;;;;;2.92;1.00;;;;;;;23.37;43.60;100302.19;4992213;28;20039;-62
2022/10/24 07:03:44;;;;;;;9.30;0.90;;;;;;;23.40;43.63;100293.56;4990277;28;20054;-61
2022/10/24 07:06:24;;;;;;;7.63;0.80;;;;;;;23.45;42.87;100287.44;4988026;28;20035;-61
2022/10/24 07:08:51;;;;;;;5.97;0.90;;;;;;;23.48;43.07;100304.22;4971633;28;20114;-61
2022/10/24 07:11:17;;;;;;;3.10;0.70;;;;;;;23.52;43.13;100313.66;4971494;28;20019;-61
2022/10/24 07:13:42;;;;;;;2.88;0.70;;;;;;;23.52;42.56;100302.72;4989560;28;20022;-61
2022/10/24 07:16:08;;;;;;;4.97;1.02;;;;;;;23.51;42.98;100308.41;4968994;28;20077;-61
2022/10/24 07:18:33;;;;;;;2.80;0.70;;;;;;;23.48;43.09;100319.81;4982451;28;20031;-61
2022/10/24 07:21:04;;;;;;;6.43;0.75;;;;;;;23.51;42.89;100314.72;4982115;28;20039;-61
2022/10/24 07:23:30;;;;;;;2.63;1.13;;;;;;;23.44;43.41;100316.69;4982798;28;20039;-61
2022/10/24 07:26:08;;;;;;;3.42;0.88;;;;;;;23.52;43.32;100324.59;4982580;28;20072;-61
2022/10/24 07:28:34;;;;;;;2.03;1.10;;;;;;;23.59;43.12;100328.09;4965458;28;20495;-61
2022/10/24 07:31:00;;;;;;;4.47;0.80;;;;;;;23.60;43.26;100335.25;4949842;28;20114;-62
2022/10/24 07:33:25;;;;;;;2.60;0.75;;;;;;;23.64;43.45;100335.63;4982580;28;20035;-61
2022/10/24 07:35:51;;;;;;;5.53;0.98;;;;;;;23.65;43.21;100340.84;4982341;28;20404;-61
2022/10/24 07:38:16;;;;;;;11.88;0.85;;;;;;;23.63;42.88;100332.06;4981505;28;20090;-61
2022/10/24 07:40:42;;;;;;;7.75;1.42;;;;;;;23.61;43.55;100331.44;4982164;28;20607;-61
2022/10/24 07:43:08;;;;;;;7.45;1.15;;;;;;;23.64;43.03;100341.94;4983094;28;20130;-62
2022/10/24 07:45:33;;;;;;;3.80;0.93;;;;;;;23.62;42.88;100349.50;4982285;28;20039;-61
2022/10/24 07:47:58;;;;;;;6.50;0.77;;;;;;;23.64;42.74;100352.03;4965486;28;20407;-61
2022/10/24 07:50:25;;;;;;;1.48;0.65;;;;;;;23.64;43.41;100347.41;4981905;28;20031;-61
2022/10/24 07:52:50;;;;;;;3.40;1.05;;;;;;;23.71;43.09;100359.09;4982092;28;20015;-61
2022/10/24 07:55:16;;;;;;;5.80;1.08;;;;;;;23.72;42.95;100347.13;4982552;28;20520;-61
2022/10/24 07:57:41;;;;;;;3.67;0.52;;;;;;;23.73;43.33;100346.03;4983241;28;20102;-61
2022/10/24 08:00:07;;;;;;;9.50;0.60;;;;;;;23.79;42.92;100338.81;4981887;28;20051;-61
2022/10/24 08:02:33;;;;;;;4.63;0.82;;;;;;;23.83;42.77;100345.53;4965957;28;20496;-61
2022/10/24 08:04:58;;;;;;;8.85;1.20;;;;;;;23.89;42.60;100350.09;4982279;28;20027;-62
2022/10/24 08:07:23;;;;;;;5.90;0.57;;;;;;;23.92;42.97;100365.22;4983322;28;20488;-62
2022/10/24 08:09:50;;;;;;;6.13;1.05;;;;;;;24.00;42.97;100363.00;4982246;28;20043;-61
2022/10/24 08:12:15;;;;;;;3.72;0.50;;;;;;;24.02;43.24;100346.34;4981991;28;20054;-62
2022/10/24 08:14:41;;;;;;;3.50;1.48;;;;;;;24.07;43.14;100354.72;4982305;28;20447;-61
2022/10/24 08:17:07;;;;;;;6.55;0.50;;;;;;;24.10;43.08;100368.81;4982331;28;20121;-61
2022/10/24 08:19:33;;;;;;;3.83;0.93;;;;;;;24.20;42.43;100371.03;4965447;28;20108;-62
2022/10/24 08:21:59;;;;;;;3.17;0.60;;;;;;;24.33;42.55;100368.13;4984439;28;20272;-61
2022/10/24 08:24:25;;;;;;;5.82;1.17;;;;;;;24.39;42.92;100371.84;4983721;28;20065;-62
2022/10/24 08:26:50;;;;;;;13.93;4.25;;;;;;;24.38;42.89;100381.94;4999167;28;20042;-61
2022/10/24 08:29:21;;;;;;;8.05;2.10;;;;;;;24.39;42.77;100394.59;4950721;28;20093;-61
2022/10/24 08:31:51;;;;;;;7.45;2.13;;;;;;;24.41;42.96;100380.66;4967914;28;20023;-62
2022/10/24 08:34:16;;;;;;;14.98;5.63;;;;;;;24.40;42.96;100390.75;4998635;28;20052;-62
2022/10/24 08:36:42;;;;;;;5.43;0.80;;;;;;;24.40;42.71;100385.28;4984428;28;20046;-61
2022/10/24 08:39:08;;;;;;;3.88;1.00;;;;;;;24.39;42.82;100394.59;4983083;28;20051;-61
2022/10/24 08:41:49;;;;;;;10.63;2.60;;;;;;;24.40;42.41;100401.72;4982951;28;20050;-61
2022/10/24 08:44:30;;;;;;;5.90;1.00;;;;;;;24.42;42.22;100394.13;4999899;28;20036;-61
2022/10/24 08:47:04;;;;;;;6.65;1.20;;;;;;;24.67;42.42;100404.97;4983938;28;20034;-61
2022/10/24 08:49:51;;;;;;;3.13;0.85;;;;;;;24.79;42.58;100409.44;4985410;28;20055;-62
2022/10/24 08:52:23;;;;;;;12.48;1.58;;;;;;;24.74;42.40;100405.69;4983217;28;20469;-61
2022/10/24 08:54:49;;;;;;;13.30;2.78;;;;;;;24.85;42.20;100403.03;4982891;28;20444;-62
2022/10/24 08:57:23;;;;;;;3.95;0.77;;;;;;;25.13;41.35;100407.06;4984067;28;20058;-61
2022/10/24 08:59:48;;;;;;;9.40;2.90;;;;;;;25.45;41.60;100412.03;4982434;28;20047;-62
2022/10/24 09:02:21;;;;;;;5.00;1.88;;;;;;;25.85;41.19;100403.94;4977493;28;20027;-61
2022/10/24 09:04:49;;;;;;;;;;;;;;;26.34;41.18;100410.03;4965233;28;20090;-61
2022/10/24 09:07:19;;;;;;;0.90;0.45;;;;;;;26.91;40.67;100416.44;4971964;28;19925;-61
2022/10/24 09:09:48;;;;;;;4.43;0.90;;;;;;;27.10;40.03;100402.25;4977297;28;20039;-61
2022/10/24 09:12:15;;;;;;;4.90;0.88;;;;;;;27.48;39.25;100406.19;4972432;28;20087;-61
2022/10/24 09:14:43;;;;;;;6.63;1.00;;;;;;;27.32;40.58;100412.50;4985833;28;20035;-60
2022/10/24 09:17:20;;;;;;;9.13;0.73;;;;;;;28.08;38.45;100412.69;4983083;28;20025;-60
2022/10/24 09:19:54;;;;;;;4.63;1.42;;;;;;;28.03;38.95;100414.53;4984733;28;20081;-62
2022/10/24 09:22:22;;;;;;;3.17;0.77;;;;;;;28.55;38.55;100409.44;4983907;28;20516;-61
2022/10/24 09:24:52;;;;;;;9.63;1.23;;;;;;;28.36;38.28;100425.47;4998544;28;20050;-60
2022/10/24 09:27:24;;;;;;;4.53;1.23;;;;;;;28.37;38.40;100404.22;4966598;28;20035;-60
2022/10/24 09:29:50;;;;;;;3.67;0.60;;;;;;;28.07;38.84;100422.03;4983412;28;20049;-61
2022/10/24 09:32:18;;;;;;;4.97;1.10;;;;;;;27.89;39.58;100418.72;4966914;28;20022;-61
2022/10/24 09:34:45;;;;;;;6.88;1.38;;;;;;;27.96;38.52;100430.38;4983455;28;20038;-60
2022/10/24 09:37:35;;;;;;;8.82;1.00;;;;;;;27.62;38.72;100415.78;4983464;28;20511;-62
2022/10/24 09:40:21;;;;;;;6.97;1.55;;;;;;;27.66;38.84;100427.97;4982298;28;20047;-61
2022/10/24 09:42:52;;;;;;;8.57;0.90;;;;;;;27.45;39.62;100435.06;4983814;28;20417;-61
2022/10/24 09:45:19;;;;;;;5.25;1.10;;;;;;;27.21;40.26;100443.66;4983532;28;20031;-61
2022/10/24 09:47:45;;;;;;;5.97;0.70;;;;;;;26.99;40.00;100441.63;4967054;28;20112;-61
2022/10/24 09:50:20;;;;;;;5.13;0.60;;;;;;;26.88;40.44;100444.44;4966574;28;20539;-60
2022/10/24 09:52:49;;;;;;;5.57;0.70;;;;;;;27.12;39.28;100457.81;4966816;28;20019;-61
2022/10/24 09:55:20;;;;;;;8.90;0.90;;;;;;;27.73;38.63;100453.41;4973827;28;20063;-61
2022/10/24 09:57:46;;;;;;;4.55;1.60;;;;;;;27.55;39.29;100448.16;4963599;28;20397;-60
2022/10/24 10:00:32;;;;;;;5.93;1.10;;;;;;;27.27;38.76;100460.03;4982178;28;20146;-62
2022/10/24 10:03:02;;;;;;;4.65;0.90;;;;;;;27.05;39.05;100470.88;4982241;28;20039;-60
2022/10/24 10:05:42;;;;;;;3.47;0.85;;;;;;;27.01;39.59;100469.72;4982566;28;20485;-61
2022/10/24 10:08:34;;;;;;;8.70;1.52;;;;;;;26.90;39.17;100487.09;4982060;28;20026;-62
2022/10/24 10:11:08;;;;;;;8.02;1.10;;;;;;;26.77;39.51;100470.84;4979472;28;20099;-62
2022/10/24 10:13:48;;;;;;;8.50;1.27;;;;;;;26.74;39.34;100473.25;4983624;28;20054;-61
2022/10/24 10:16:28;;;;;;;12.15;1.23;;;;;;;27.01;38.95;100483.47;4980666;28;20410;-60
2022/10/24 10:19:02;;;;;;;5.00;0.82;;;;;;;27.50;38.38;100468.16;4964869;28;20031;-59
2022/10/24 10:22:03;;;;;;;6.38;1.00;;;;;;;27.25;38.91;100484.19;4962692;28;20031;-60
2022/10/24 10:24:38;;;;;;;3.65;1.08;;;;;;;27.43;39.28;100492.25;4981345;28;20058;-61
2022/10/24 10:27:33;;;;;;;8.05;1.02;;;;;;;28.59;37.73;100496.03;4962151;28;20027;-60
2022/10/24 10:30:15;;;;;;;8.45;1.38;;;;;;;28.13;38.18;100492.66;4979930;28;20050;-60
2022/10/24 10:32:44;;;;;;;;;;;;;;;28.68;38.02;100494.53;4988112;28;20034;-59
2022/10/24 10:35:18;;;;;;;6.30;0.90;;;;;;;28.48;37.98;100495.06;4997417;28;19910;-59
2022/10/24 10:38:28;;;;;;;6.90;0.95;;;;;;;28.22;37.84;100496.66;4962880;28;20041;-60
2022/10/24 10:41:03;;;;;;;7.75;1.63;;;;;;;28.84;37.42;100496.41;4979607;28;20057;-60
2022/10/24 10:43:53;;;;;;;5.22;0.70;;;;;;;28.41;38.41;100507.38;4978930;28;20050;-62
2022/10/24 10:46:28;;;;;;;3.67;1.13;;;;;;;28.10;38.08;100509.69;4962116;28;20046;-60
2022/10/24 10:49:08;;;;;;;4.10;0.90;;;;;;;27.87;39.03;100507.06;4978380;28;20031;-61
2022/10/24 10:51:57;;;;;;;5.72;0.98;;;;;;;27.59;38.34;100521.72;4978296;28;20033;-61
2022/10/24 10:55:00;;;;;;;7.10;0.75;;;;;;;27.35;38.25;100519.31;4978670;28;20070;-60
2022/10/24 10:57:49;;;;;;;;;;;;;;;27.13;39.38;100541.19;4979179;28;20038;-60
2022/10/24 11:00:41;;;;;;;7.50;1.23;;;;;;;26.87;39.03;100530.72;4974445;28;19977;-60
2022/10/24 11:03:18;;;;;;;9.67;1.23;;;;;;;26.69;39.04;100528.94;4955579;28;20102;-60
2022/10/24 11:05:58;;;;;;;6.85;0.98;;;;;;;26.56;39.37;100537.44;4978968;28;20403;-60
2022/10/24 11:08:32;;;;;;;4.10;0.95;;;;;;;26.48;39.07;100529.56;4977713;28;20027;-61
2022/10/24 11:11:10;;;;;;;4.60;0.88;;;;;;;26.49;39.51;100528.50;4978417;28;20038;-60
2022/10/24 11:13:41;;;;;;;10.40;1.67;;;;;;;26.46;39.54;100539.97;4962461;28;20042;-60
2022/10/24 11:16:18;;;;;;;2.78;0.85;;;;;;;26.35;38.97;100536.16;4962500;28;20045;-61
2022/10/24 11:18:46;;;;;;;8.13;1.33;;;;;;;26.25;39.31;100535.06;4978593;28;20061;-60
2022/10/24 11:21:13;;;;;;;9.60;1.83;;;;;;;26.20;39.38;100529.44;4978064;28;20620;-61
2022/10/24 11:23:50;;;;;;;9.70;1.38;;;;;;;26.16;39.54;100540.06;4981829;28;20031;-60
2022/10/24 11:26:42;;;;;;;6.55;1.30;;;;;;;26.11;39.49;100539.06;4981416;28;20030;-60
2022/10/24 11:29:22;;;;;;;7.18;2.13;;;;;;;26.09;39.84;100541.22;4965463;28;20034;-61
2022/10/24 11:32:02;;;;;;;5.00;1.75;;;;;;;26.03;39.48;100541.13;4965853;28;20033;-61
2022/10/24 11:34:33;;;;;;;4.35;1.48;;;;;;;26.20;39.30;100549.53;5000865;28;20039;-62
2022/10/24 11:37:18;;;;;;;4.95;1.13;;;;;;;26.44;39.56;100539.34;5002486;28;20156;-61
2022/10/24 11:39:48;;;;;;;6.10;1.30;;;;;;;26.38;39.23;100543.09;5000584;28;20054;-60
2022/10/24 11:42:33;;;;;;;6.38;1.13;;;;;;;26.34;39.36;100541.88;5000443;28;20066;-60
2022/10/24 11:45:09;;;;;;;2.63;0.68;;;;;;;26.45;39.69;100536.38;4984618;28;20046;-60
2022/10/24 11:47:54;;;;;;;6.30;1.50;;;;;;;26.44;39.14;100540.19;5000270;28;20038;-60
2022/10/24 11:50:39;;;;;;;10.43;1.60;;;;;;;26.56;39.19;100548.44;5001888;28;20038;-60
2022/10/24 11:53:10;;;;;;;5.82;1.83;;;;;;;26.74;39.49;100547.47;5000287;28;20023;-61
2022/10/24 11:55:37;;;;;;;3.70;1.45;;;;;;;27.36;38.75;100540.25;5002164;28;20026;-61
2022/10/24 11:58:09;;;;;;;6.43;2.47;;;;;;;27.62;38.67;100539.66;4999424;28;20039;-60
2022/10/24 12:00:47;;;;;;;20.13;5.00;;;;;;;27.56;38.95;100548.91;4999187;28;20034;-61
2022/10/24 12:03:40;;;;;;;43.50;14.45;;;;;;;28.02;38.06;100545.88;4982619;28;20038;-61
2022/10/24 12:06:24;;;;;;;40.13;12.30;;;;;;;28.65;38.28;100544.69;4982908;28;20039;-62